createdAt,value
2022-12-18T00:01:15.279Z,16.97
2022-12-18T00:03:43.008Z,17.60
2022-12-18T00:06:10.701Z,21.33
2022-12-18T00:08:37.955Z,22.88
2022-12-18T00:11:09.797Z,21.42
2022-12-18T00:13:37.404Z,20.13
2022-12-18T00:16:09.396Z,21.75
2022-12-18T00:18:37.115Z,22.33
2022-12-18T00:21:05.776Z,17.70
2022-12-18T00:23:33.713Z,20.02
2022-12-18T00:26:01.429Z,19.27
2022-12-18T00:28:28.779Z,19.25
2022-12-18T00:31:05.950Z,20.90
2022-12-18T00:33:33.228Z,24.13
2022-12-18T00:36:07.888Z,23.20
2022-12-18T00:38:35.987Z,23.57
2022-12-18T00:41:03.850Z,23.33
2022-12-18T00:43:31.267Z,19.02
2022-12-18T00:45:58.530Z,21.55
2022-12-18T00:48:26.727Z,18.25
2022-12-18T00:50:53.995Z,19.30
2022-12-18T00:53:21.172Z,16.52
2022-12-18T00:55:48.891Z,21.00
2022-12-18T00:58:17.664Z,18.25
2022-12-18T01:00:45.016Z,22.88
2022-12-18T01:03:15.582Z,24.90
2022-12-18T01:05:44.822Z,22.98
2022-12-18T01:08:12.610Z,23.27
2022-12-18T01:10:42.615Z,23.10
2022-12-18T01:13:10.160Z,22.65
2022-12-18T01:15:37.463Z,23.40
2022-12-18T01:18:04.709Z,20.08
2022-12-18T01:20:32.011Z,20.45
2022-12-18T01:22:59.573Z,18.63
2022-12-18T01:25:27.947Z,21.83
2022-12-18T01:27:55.185Z,24.33
2022-12-18T01:30:22.473Z,22.65
2022-12-18T01:32:49.671Z,23.33
2022-12-18T01:35:18.083Z,22.00
2022-12-18T01:37:45.336Z,20.88
2022-12-18T01:40:12.721Z,22.27
2022-12-18T01:42:40.204Z,19.92
2022-12-18T01:45:17.554Z,22.33
2022-12-18T01:47:50.940Z,23.52
2022-12-18T01:50:22.976Z,19.88
2022-12-18T01:52:58.392Z,22.57
2022-12-18T01:55:27.445Z,21.63
2022-12-18T01:57:56.198Z,22.13
2022-12-18T02:00:24.495Z,19.60
2022-12-18T02:02:52.498Z,20.67
2022-12-18T02:05:22.508Z,22.73
2022-12-18T02:07:58.341Z,21.85
2022-12-18T02:10:25.599Z,16.75
2022-12-18T02:12:52.798Z,20.50
2022-12-18T02:15:25.224Z,21.00
2022-12-18T02:17:58.539Z,18.37
2022-12-18T02:20:28.856Z,22.20
2022-12-18T02:23:16.024Z,22.65
2022-12-18T02:26:22.162Z,24.15
2022-12-18T02:28:56.467Z,21.30
2022-12-18T02:31:27.098Z,25.53
2022-12-18T02:33:56.401Z,24.83
2022-12-18T02:36:24.535Z,24.35
2022-12-18T02:38:54.000Z,24.20
2022-12-18T02:41:23.952Z,25.63
2022-12-18T02:43:56.704Z,26.13
2022-12-18T02:46:29.525Z,26.30
2022-12-18T02:49:05.398Z,24.77
2022-12-18T02:51:59.488Z,25.58
2022-12-18T02:54:26.772Z,27.75
2022-12-18T02:56:56.446Z,27.20
2022-12-18T02:59:30.741Z,25.50
2022-12-18T03:02:02.731Z,24.25
2022-12-18T03:04:35.269Z,26.30
2022-12-18T03:07:06.942Z,24.83
2022-12-18T03:09:37.157Z,21.77
2022-12-18T03:12:24.148Z,25.13
2022-12-18T03:14:55.040Z,24.25
2022-12-18T03:17:23.804Z,22.60
2022-12-18T03:19:53.457Z,23.25
2022-12-18T03:22:21.846Z,23.83
2022-12-18T03:24:53.282Z,23.60
2022-12-18T03:27:22.607Z,23.42
2022-12-18T03:29:55.585Z,22.52
2022-12-18T03:32:29.099Z,22.67
2022-12-18T03:34:59.805Z,22.80
2022-12-18T03:37:33.944Z,22.88
2022-12-18T03:40:01.622Z,20.98
2022-12-18T03:42:32.232Z,23.98
2022-12-18T03:45:29.864Z,22.02
2022-12-18T03:47:57.093Z,22.37
2022-12-18T03:50:26.618Z,23.20
2022-12-18T03:52:57.777Z,22.48
2022-12-18T03:55:26.641Z,22.67
2022-12-18T03:58:00.423Z,23.63
2022-12-18T04:00:32.847Z,23.30
2022-12-18T04:03:08.003Z,21.88
2022-12-18T04:05:42.804Z,22.88
2022-12-18T04:08:10.657Z,22.98
2022-12-18T04:10:42.488Z,21.85
2022-12-18T04:13:10.456Z,23.77
2022-12-18T04:15:38.188Z,22.85
2022-12-18T04:18:09.708Z,22.95
2022-12-18T04:20:41.015Z,24.83
2022-12-18T04:23:09.136Z,22.63
2022-12-18T04:25:38.307Z,22.60
2022-12-18T04:28:09.453Z,20.85
2022-12-18T04:30:38.888Z,21.58
2022-12-18T04:33:10.754Z,21.77
2022-12-18T04:35:38.732Z,20.90
2022-12-18T04:38:07.842Z,21.93
2022-12-18T04:40:35.090Z,20.02
2022-12-18T04:43:04.890Z,22.23
2022-12-18T04:45:32.711Z,21.83
2022-12-18T04:48:00.334Z,21.27
2022-12-18T04:50:27.914Z,18.90
2022-12-18T04:52:56.085Z,16.30
2022-12-18T04:55:26.647Z,20.08
2022-12-18T04:57:54.094Z,20.42
2022-12-18T05:00:21.373Z,18.80
2022-12-18T05:02:48.737Z,16.10
2022-12-18T05:05:16.191Z,19.02
2022-12-18T05:07:43.442Z,16.15
2022-12-18T05:10:11.282Z,15.85
2022-12-18T05:12:58.481Z,17.30
2022-12-18T05:15:28.344Z,17.33
2022-12-18T05:17:56.101Z,16.20
2022-12-18T05:20:23.398Z,17.67
2022-12-18T05:22:50.658Z,17.95
2022-12-18T05:25:17.893Z,16.75
2022-12-18T05:27:45.863Z,17.87
2022-12-18T05:30:13.968Z,17.77
2022-12-18T05:32:41.362Z,18.42
2022-12-18T05:35:09.379Z,18.45
2022-12-18T05:37:42.510Z,16.27
2022-12-18T05:40:10.672Z,16.67
2022-12-18T05:42:37.936Z,16.80
2022-12-18T05:45:05.890Z,16.45
2022-12-18T05:47:33.155Z,16.90
2022-12-18T05:50:00.424Z,15.38
2022-12-18T05:52:27.775Z,18.13
2022-12-18T05:54:55.110Z,16.00
2022-12-18T05:57:22.677Z,16.35
2022-12-18T05:59:49.938Z,15.27
2022-12-18T06:02:17.587Z,15.38
2022-12-18T06:04:44.914Z,15.63
2022-12-18T06:07:12.268Z,17.00
2022-12-18T06:09:39.586Z,15.55
2022-12-18T06:12:07.137Z,15.73
2022-12-18T06:14:34.344Z,15.15
2022-12-18T06:17:01.631Z,15.40
2022-12-18T06:19:28.901Z,15.43
2022-12-18T06:21:58.750Z,15.20
2022-12-18T06:24:26.152Z,13.95
2022-12-18T06:26:53.443Z,16.08
2022-12-18T06:29:20.882Z,15.30
2022-12-18T06:31:48.252Z,14.80
2022-12-18T06:34:15.597Z,14.77
2022-12-18T06:36:42.885Z,13.90
2022-12-18T06:39:10.211Z,14.50
2022-12-18T06:41:37.459Z,16.43
2022-12-18T06:44:05.017Z,15.05
2022-12-18T06:46:33.186Z,14.93
2022-12-18T06:49:00.441Z,14.48
2022-12-18T06:51:27.786Z,13.52
2022-12-18T06:53:55.166Z,13.60
2022-12-18T06:56:22.376Z,14.27
2022-12-18T06:58:50.958Z,14.57
2022-12-18T07:01:18.357Z,14.73
2022-12-18T07:03:46.001Z,13.93
2022-12-18T07:06:17.927Z,13.83
2022-12-18T07:08:45.701Z,13.38
2022-12-18T07:11:13.203Z,14.07
2022-12-18T07:13:40.762Z,14.30
2022-12-18T07:16:22.309Z,9.57
2022-12-18T07:18:51.364Z,12.80
2022-12-18T07:21:20.215Z,12.93
2022-12-18T07:23:49.081Z,14.27
2022-12-18T07:26:17.441Z,10.40
2022-12-18T07:28:44.896Z,13.13
2022-12-18T07:31:13.851Z,13.37
2022-12-18T07:33:41.587Z,11.75
2022-12-18T07:36:09.919Z,15.05
2022-12-18T07:38:37.396Z,12.95
2022-12-18T07:41:05.871Z,13.07
2022-12-18T07:43:34.316Z,13.17
2022-12-18T07:46:01.608Z,13.15
2022-12-18T07:48:29.705Z,14.63
2022-12-18T07:51:00.249Z,12.63
2022-12-18T07:53:27.640Z,13.15
2022-12-18T07:56:25.917Z,14.23
2022-12-18T07:58:49.195Z,14.77
2022-12-18T08:01:16.540Z,14.57
2022-12-18T08:03:44.635Z,12.80
2022-12-18T08:06:11.881Z,14.32
2022-12-18T08:08:39.205Z,13.97
2022-12-18T08:11:06.641Z,15.02
2022-12-18T08:13:33.930Z,14.02
2022-12-18T08:16:02.290Z,14.43
2022-12-18T08:18:29.962Z,12.55
2022-12-18T08:20:57.297Z,12.27
2022-12-18T08:23:28.544Z,12.75
2022-12-18T08:25:56.041Z,13.38
2022-12-18T08:28:23.284Z,12.98
2022-12-18T08:30:53.315Z,13.50
2022-12-18T08:33:20.662Z,10.67
2022-12-18T08:35:47.978Z,12.43
2022-12-18T08:38:15.243Z,11.95
2022-12-18T08:40:42.599Z,13.85
2022-12-18T08:43:29.888Z,12.18
2022-12-18T08:45:57.356Z,13.87
2022-12-18T08:48:24.576Z,12.65
2022-12-18T08:50:55.653Z,13.50
2022-12-18T08:53:22.974Z,13.25
2022-12-18T08:55:50.592Z,13.10
2022-12-18T08:58:17.936Z,13.03
2022-12-18T09:00:45.178Z,14.30
2022-12-18T09:03:16.532Z,15.95
2022-12-18T09:05:43.857Z,13.18
2022-12-18T09:08:11.226Z,11.15
2022-12-18T09:10:48.664Z,11.50
2022-12-18T09:13:16.575Z,10.20
2022-12-18T09:15:46.229Z,11.25
2022-12-18T09:18:14.168Z,10.68
2022-12-18T09:20:41.357Z,10.13
2022-12-18T09:23:09.825Z,11.80
2022-12-18T09:25:37.651Z,11.98
2022-12-18T09:28:06.318Z,12.27
2022-12-18T09:30:37.124Z,12.07
2022-12-18T09:33:04.684Z,12.07
2022-12-18T09:35:34.275Z,12.83
2022-12-18T09:38:01.762Z,12.15
2022-12-18T09:40:34.399Z,12.18
2022-12-18T09:43:04.451Z,11.10
2022-12-18T09:45:39.703Z,11.00
2022-12-18T09:48:09.722Z,11.80
2022-12-18T09:50:40.905Z,10.05
2022-12-18T09:53:11.865Z,9.43
2022-12-18T09:55:41.290Z,10.95
2022-12-18T09:58:09.232Z,12.57
2022-12-18T10:00:36.629Z,11.73
2022-12-18T10:03:14.228Z,12.25
2022-12-18T10:05:45.089Z,11.75
2022-12-18T10:08:20.730Z,10.77
2022-12-18T10:10:59.786Z,11.48
2022-12-18T10:13:33.397Z,11.20
2022-12-18T10:16:16.294Z,11.00
2022-12-18T10:18:55.736Z,9.90
2022-12-18T10:21:31.830Z,10.75
2022-12-18T10:24:04.840Z,13.02
2022-12-18T10:26:33.722Z,11.77
2022-12-18T10:29:05.574Z,8.98
2022-12-18T10:31:33.386Z,12.57
2022-12-18T10:34:00.644Z,11.77
2022-12-18T10:36:28.053Z,11.77
2022-12-18T10:38:55.310Z,11.00
2022-12-18T10:41:26.691Z,13.32
2022-12-18T10:44:21.186Z,12.23
2022-12-18T10:46:50.232Z,12.45
2022-12-18T10:49:21.777Z,11.02
2022-12-18T10:51:49.234Z,11.20
2022-12-18T10:54:18.528Z,12.27
2022-12-18T10:56:46.422Z,11.35
2022-12-18T10:59:15.351Z,11.38
2022-12-18T11:01:48.818Z,12.32
2022-12-18T11:04:21.083Z,12.10
2022-12-18T11:06:59.103Z,12.63
2022-12-18T11:09:30.810Z,12.30
2022-12-18T11:12:00.311Z,12.70
2022-12-18T11:14:29.615Z,11.20
2022-12-18T11:17:24.407Z,10.97
2022-12-18T11:19:44.768Z,12.70
2022-12-18T11:22:22.754Z,11.35
2022-12-18T11:25:32.138Z,14.70
2022-12-18T11:27:57.197Z,10.05
2022-12-18T11:30:26.271Z,10.50
2022-12-18T11:33:11.600Z,11.25
2022-12-18T11:36:04.633Z,9.88
2022-12-18T11:38:34.227Z,12.85
2022-12-18T11:41:04.630Z,9.25
2022-12-18T11:43:34.702Z,9.47
2022-12-18T11:46:09.026Z,11.35
2022-12-18T11:48:44.017Z,12.77
2022-12-18T11:51:16.092Z,11.05
2022-12-18T11:53:46.271Z,10.57
2022-12-18T11:56:13.648Z,10.87
2022-12-18T11:58:54.451Z,12.40
2022-12-18T12:01:44.228Z,11.88
2022-12-18T12:04:30.556Z,11.52
2022-12-18T12:07:22.212Z,11.38
2022-12-18T12:09:55.207Z,8.43
2022-12-18T12:12:25.567Z,11.57
2022-12-18T12:15:15.613Z,8.02
2022-12-18T12:17:46.436Z,9.65
2022-12-18T12:20:25.384Z,10.95
2022-12-18T12:22:59.359Z,10.63
2022-12-18T12:25:42.056Z,14.02
2022-12-18T12:28:15.372Z,9.50
2022-12-18T12:31:18.333Z,11.23
2022-12-18T12:33:54.796Z,12.60
2022-12-18T12:36:27.859Z,9.13
2022-12-18T12:38:56.908Z,13.23
2022-12-18T12:41:45.252Z,12.60
2022-12-18T12:44:16.994Z,13.13
2022-12-18T12:46:45.166Z,13.65
2022-12-18T12:49:23.339Z,12.77
2022-12-18T12:52:07.970Z,11.32
2022-12-18T12:54:35.962Z,12.18
2022-12-18T12:57:10.321Z,11.77
2022-12-18T12:59:38.141Z,11.05
2022-12-18T13:02:26.755Z,12.17
2022-12-18T13:04:59.711Z,11.25
2022-12-18T13:07:40.069Z,12.45
2022-12-18T13:10:27.118Z,11.07
2022-12-18T13:12:58.962Z,13.60
2022-12-18T13:15:30.548Z,12.33
2022-12-18T13:18:11.711Z,14.18
2022-12-18T13:20:46.602Z,9.85
2022-12-18T13:23:27.486Z,10.90
2022-12-18T13:25:54.793Z,12.57
2022-12-18T13:28:22.062Z,13.83
2022-12-18T13:30:50.873Z,12.18
2022-12-18T13:33:27.900Z,10.85
2022-12-18T13:36:02.506Z,10.27
2022-12-18T13:38:32.867Z,9.88
2022-12-18T13:41:00.862Z,11.63
2022-12-18T13:43:30.255Z,12.00
2022-12-18T13:46:00.628Z,11.82
2022-12-18T13:48:28.980Z,10.95
2022-12-18T13:51:22.806Z,12.77
2022-12-18T13:53:52.417Z,11.17
2022-12-18T13:56:20.340Z,10.80
2022-12-18T13:58:48.497Z,12.38
2022-12-18T14:01:25.204Z,10.55
2022-12-18T14:03:52.605Z,13.98
2022-12-18T14:06:20.227Z,11.97
2022-12-18T14:08:48.362Z,10.60
2022-12-18T14:11:21.952Z,11.82
2022-12-18T14:13:50.617Z,10.20
2022-12-18T14:16:19.051Z,12.05
2022-12-18T14:18:46.489Z,11.77
2022-12-18T14:21:22.491Z,11.00
2022-12-18T14:23:49.910Z,10.40
2022-12-18T14:26:30.798Z,11.52
2022-12-18T14:28:59.580Z,11.02
2022-12-18T14:31:28.146Z,12.33
2022-12-18T14:33:56.241Z,11.38
2022-12-18T14:36:24.790Z,11.93
2022-12-18T14:38:54.600Z,10.43
2022-12-18T14:41:22.449Z,11.35
2022-12-18T14:43:50.770Z,11.83
2022-12-18T14:46:50.245Z,10.15
2022-12-18T14:49:28.582Z,11.52
2022-12-18T14:51:57.122Z,12.50
2022-12-18T14:54:25.558Z,12.80
2022-12-18T14:56:57.589Z,12.67
2022-12-18T14:59:26.234Z,11.90
2022-12-18T15:02:01.645Z,11.57
2022-12-18T15:04:29.668Z,12.02
2022-12-18T15:07:12.921Z,12.75
2022-12-18T15:09:41.795Z,13.47
2022-12-18T15:12:27.270Z,11.25
2022-12-18T15:14:54.598Z,13.85
2022-12-18T15:17:25.783Z,13.05
2022-12-18T15:19:59.803Z,12.88
2022-12-18T15:22:27.055Z,11.83
2022-12-18T15:24:55.213Z,12.50
2022-12-18T15:27:27.692Z,13.85
2022-12-18T15:30:17.839Z,13.32
2022-12-18T15:32:45.765Z,12.98
2022-12-18T15:35:12.999Z,12.20
2022-12-18T15:37:40.284Z,10.75
2022-12-18T15:40:09.408Z,15.30
2022-12-18T15:42:55.384Z,13.70
2022-12-18T15:45:22.674Z,13.25
2022-12-18T15:47:51.366Z,12.97
2022-12-18T15:50:18.720Z,15.93
2022-12-18T15:52:47.558Z,12.00
2022-12-18T15:55:34.489Z,11.57
2022-12-18T15:58:03.298Z,11.38
2022-12-18T16:00:30.637Z,11.07
2022-12-18T16:02:57.971Z,15.05
2022-12-18T16:05:25.752Z,12.75
2022-12-18T16:07:52.988Z,15.02
2022-12-18T16:10:20.263Z,13.48
2022-12-18T16:12:47.695Z,12.43
2022-12-18T16:15:21.095Z,11.00
2022-12-18T16:17:52.732Z,12.35
2022-12-18T16:20:22.001Z,12.73
2022-12-18T16:22:50.326Z,12.13
2022-12-18T16:25:17.627Z,12.30
2022-12-18T16:27:44.872Z,10.45
2022-12-18T16:30:20.526Z,12.48
2022-12-18T16:32:47.898Z,10.23
2022-12-18T16:35:16.033Z,13.48
2022-12-18T16:37:43.500Z,13.93
2022-12-18T16:40:12.491Z,11.68
2022-12-18T16:42:40.283Z,11.98
2022-12-18T16:45:08.482Z,13.40
2022-12-18T16:47:36.156Z,16.13
2022-12-18T16:50:03.471Z,12.67
2022-12-18T16:52:30.967Z,14.20
2022-12-18T16:54:58.248Z,9.48
2022-12-18T16:57:25.661Z,14.55
2022-12-18T16:59:53.256Z,12.02
2022-12-18T17:02:24.832Z,11.03
2022-12-18T17:04:54.451Z,13.65
2022-12-18T17:07:22.300Z,13.07
2022-12-18T17:09:51.169Z,13.88
2022-12-18T17:12:18.783Z,13.73
2022-12-18T17:14:46.019Z,13.77
2022-12-18T17:17:23.309Z,13.05
2022-12-18T17:19:51.548Z,13.23
2022-12-18T17:22:18.795Z,13.75
2022-12-18T17:24:46.968Z,14.15
2022-12-18T17:27:14.329Z,12.30
2022-12-18T17:29:47.380Z,13.43
2022-12-18T17:32:16.402Z,12.18
2022-12-18T17:34:43.690Z,14.65
2022-12-18T17:37:12.113Z,14.27
2022-12-18T17:39:39.793Z,12.17
2022-12-18T17:42:07.836Z,14.35
2022-12-18T17:44:37.881Z,11.82
2022-12-18T17:47:06.158Z,12.77
2022-12-18T17:49:33.467Z,15.52
2022-12-18T17:52:00.704Z,12.03
2022-12-18T17:54:27.958Z,9.73
2022-12-18T17:56:55.230Z,12.73
2022-12-18T17:59:22.766Z,14.80
2022-12-18T18:01:50.135Z,13.80
2022-12-18T18:04:17.626Z,10.93
2022-12-18T18:06:44.960Z,14.48
2022-12-18T18:09:16.400Z,14.93
2022-12-18T18:12:03.879Z,10.98
2022-12-18T18:14:31.600Z,13.18
2022-12-18T18:17:00.783Z,12.30
2022-12-18T18:19:32.700Z,12.73
2022-12-18T18:21:59.893Z,13.20
2022-12-18T18:24:27.684Z,11.77
2022-12-18T18:26:55.024Z,13.43
2022-12-18T18:29:23.780Z,14.33
2022-12-18T18:31:53.649Z,11.73
2022-12-18T18:34:25.305Z,12.10
2022-12-18T18:36:52.637Z,13.27
2022-12-18T18:39:19.949Z,13.75
2022-12-18T18:41:48.222Z,13.87
2022-12-18T18:44:16.541Z,9.80
2022-12-18T18:46:43.864Z,13.10
2022-12-18T18:49:11.806Z,13.30
2022-12-18T18:51:40.332Z,14.38
2022-12-18T18:54:07.612Z,14.40
2022-12-18T18:56:56.718Z,11.07
2022-12-18T18:59:31.587Z,12.80
2022-12-18T19:02:00.088Z,13.23
2022-12-18T19:04:32.018Z,14.82
2022-12-18T19:06:59.230Z,13.63
2022-12-18T19:09:26.900Z,13.80
2022-12-18T19:12:12.967Z,17.42
2022-12-18T19:14:40.287Z,14.55
2022-12-18T19:17:07.668Z,13.40
2022-12-18T19:19:35.324Z,14.50
2022-12-18T19:22:02.779Z,16.23
2022-12-18T19:24:32.882Z,16.58
2022-12-18T19:27:00.123Z,17.27
2022-12-18T19:29:27.407Z,16.55
2022-12-18T19:31:54.745Z,14.60
2022-12-18T19:34:22.023Z,14.63
2022-12-18T19:36:52.942Z,14.13
2022-12-18T19:39:23.978Z,14.25
2022-12-18T19:41:52.763Z,13.63
2022-12-18T19:44:20.008Z,16.83
2022-12-18T19:46:50.324Z,14.27
2022-12-18T19:49:18.302Z,13.10
2022-12-18T19:51:46.105Z,14.13
2022-12-18T19:54:17.273Z,17.13
2022-12-18T19:56:45.359Z,15.17
2022-12-18T19:59:13.132Z,15.05
2022-12-18T20:01:40.936Z,13.30
2022-12-18T20:04:08.477Z,13.05
2022-12-18T20:06:49.963Z,16.65
2022-12-18T20:09:17.862Z,15.23
2022-12-18T20:11:46.355Z,14.82
2022-12-18T20:14:14.402Z,15.35
2022-12-18T20:16:44.216Z,15.32
2022-12-18T20:19:12.836Z,14.48
2022-12-18T20:21:41.509Z,14.90
2022-12-18T20:24:09.091Z,16.52
2022-12-18T20:26:36.335Z,14.65
2022-12-18T20:29:03.639Z,12.18
2022-12-18T20:31:31.044Z,13.23
2022-12-18T20:34:01.721Z,11.27
2022-12-18T20:36:33.052Z,15.38
2022-12-18T20:39:04.000Z,13.05
2022-12-18T20:41:37.923Z,15.00
2022-12-18T20:44:21.630Z,13.60
2022-12-18T20:46:51.600Z,12.23
2022-12-18T20:49:18.903Z,15.60
2022-12-18T20:51:46.199Z,15.68
2022-12-18T20:54:13.433Z,14.40
2022-12-18T20:56:40.656Z,15.57
2022-12-18T20:59:07.932Z,11.50
2022-12-18T21:01:35.867Z,14.70
2022-12-18T21:04:04.741Z,15.45
2022-12-18T21:06:31.995Z,13.05
2022-12-18T21:08:59.409Z,13.85
2022-12-18T21:11:47.280Z,14.60
2022-12-18T21:14:22.018Z,12.80
2022-12-18T21:16:49.712Z,13.25
2022-12-18T21:19:21.127Z,11.77
2022-12-18T21:21:48.424Z,13.32
2022-12-18T21:24:15.881Z,14.97
2022-12-18T21:26:45.862Z,16.48
2022-12-18T21:29:15.178Z,15.20
2022-12-18T21:31:43.113Z,13.93
2022-12-18T21:34:12.376Z,16.05
2022-12-18T21:36:40.415Z,15.93
2022-12-18T21:39:07.633Z,13.43
2022-12-18T21:41:55.333Z,13.60
2022-12-18T21:44:24.061Z,15.15
2022-12-18T21:46:57.437Z,14.95
2022-12-18T21:49:27.553Z,14.10
2022-12-18T21:51:55.979Z,17.77
2022-12-18T21:54:23.695Z,16.75
2022-12-18T21:56:52.444Z,15.35
2022-12-18T21:59:24.006Z,14.73
2022-12-18T22:01:51.833Z,16.20
2022-12-18T22:04:19.673Z,16.45
2022-12-18T22:06:48.894Z,13.93
2022-12-18T22:09:17.894Z,14.10
2022-12-18T22:11:45.482Z,14.25
2022-12-18T22:14:13.672Z,17.70
2022-12-18T22:16:41.052Z,11.63
2022-12-18T22:19:08.665Z,13.77
2022-12-18T22:21:37.156Z,12.75
2022-12-18T22:24:05.947Z,13.77
2022-12-18T22:26:39.461Z,15.03
2022-12-18T22:29:25.594Z,14.07
2022-12-18T22:31:52.819Z,16.63
2022-12-18T22:34:22.945Z,14.35
2022-12-18T22:36:51.037Z,16.35
2022-12-18T22:39:19.588Z,13.80
2022-12-18T22:41:46.848Z,14.43
2022-12-18T22:44:15.031Z,17.30
2022-12-18T22:46:46.241Z,16.10
2022-12-18T22:49:17.645Z,12.40
2022-12-18T22:51:45.023Z,14.87
2022-12-18T22:54:12.483Z,15.75
2022-12-18T22:56:40.037Z,16.92
2022-12-18T22:59:08.665Z,13.77
2022-12-18T23:01:36.020Z,13.68
2022-12-18T23:04:05.632Z,15.73
2022-12-18T23:06:32.890Z,13.48
2022-12-18T23:09:00.124Z,12.70
2022-12-18T23:11:27.870Z,14.68
2022-12-18T23:13:56.733Z,15.60
2022-12-18T23:16:26.173Z,11.03
2022-12-18T23:18:54.404Z,13.15
2022-12-18T23:21:22.356Z,16.38
2022-12-18T23:23:50.622Z,13.65
2022-12-18T23:26:23.002Z,14.68
2022-12-18T23:28:50.990Z,13.60
2022-12-18T23:31:34.798Z,13.35
2022-12-18T23:34:02.543Z,13.30
2022-12-18T23:36:30.819Z,14.65
2022-12-18T23:39:05.314Z,15.60
2022-12-18T23:41:33.017Z,14.00
2022-12-18T23:44:01.173Z,13.15
2022-12-18T23:46:30.216Z,12.88
2022-12-18T23:48:59.181Z,15.75
2022-12-18T23:51:26.654Z,14.10
2022-12-18T23:53:55.051Z,13.20
2022-12-18T23:56:22.408Z,15.02
2022-12-18T23:58:52.054Z,16.08
